Time;durP1;ratioP1;P1;durP2;ratioP2;P2;SDS_P1;SDS_P2;PMS_P1;PMS_P2;Temp;Humidity;BMP_temperature;BMP_pressure;BME280_temperature;BME280_humidity;BME280_pressure;Samples;Min_cycle;Max_cycle;Signal;HPM_P1;HPM_P2
2021/10/26 00:00:55;;;;;;;7.83;5.20;;;6.40;99.90;;;;;;1878957;75;21152;-74
2021/10/26 00:03:21;;;;;;;14.85;6.50;;;6.40;99.90;;;;;;1882111;75;21065;-74
2021/10/26 00:05:47;;;;;;;9.60;5.65;;;6.40;99.90;;;;;;1859003;76;21497;-73
2021/10/26 00:08:13;;;;;;;9.53;5.58;;;6.40;99.90;;;;;;1882002;75;21503;-73
2021/10/26 00:10:39;;;;;;;8.15;5.75;;;6.40;99.90;;;;;;1869169;75;21543;-73
2021/10/26 00:13:06;;;;;;;10.50;5.97;;;6.40;99.90;;;;;;1861168;74;21491;-73
2021/10/26 00:15:32;;;;;;;11.83;6.15;;;6.40;99.90;;;;;;1888803;76;21056;-73
2021/10/26 00:17:58;;;;;;;12.30;5.70;;;6.50;99.90;;;;;;1872087;74;21162;-73
2021/10/26 00:20:24;;;;;;;12.53;5.55;;;6.50;99.90;;;;;;1874392;75;21081;-73
2021/10/26 00:22:50;;;;;;;11.12;6.17;;;6.40;99.90;;;;;;1878023;74;21177;-73
2021/10/26 00:25:17;;;;;;;7.33;4.97;;;6.40;99.90;;;;;;1868510;75;21084;-74
2021/10/26 00:27:43;;;;;;;12.85;5.33;;;6.30;99.90;;;;;;1865638;75;21213;-74
2021/10/26 00:30:09;;;;;;;7.08;5.03;;;6.30;99.90;;;;;;1868556;74;21219;-74
2021/10/26 00:32:35;;;;;;;9.78;5.20;;;6.30;99.90;;;;;;1870123;75;21155;-74
2021/10/26 00:35:02;;;;;;;8.23;5.30;;;6.20;99.90;;;;;;1873303;75;21060;-74
2021/10/26 00:37:29;;;;;;;10.35;5.55;;;6.20;99.90;;;;;;1860573;76;21077;-73
2021/10/26 00:39:55;;;;;;;10.58;6.08;;;6.30;99.90;;;;;;1862461;75;21095;-73
2021/10/26 00:42:21;;;;;;;13.68;5.22;;;6.30;99.90;;;;;;1875682;75;21088;-74
2021/10/26 00:44:47;;;;;;;12.40;5.22;;;6.30;99.90;;;;;;1866038;76;21154;-74
2021/10/26 00:47:13;;;;;;;9.55;6.22;;;6.30;99.90;;;;;;1879545;74;21158;-74
2021/10/26 00:49:39;;;;;;;6.62;5.45;;;6.30;99.90;;;;;;1872448;76;21061;-74
2021/10/26 00:52:06;;;;;;;7.87;5.00;;;6.40;99.90;;;;;;1865335;75;21080;-73
2021/10/26 00:54:32;;;;;;;7.62;5.50;;;6.50;99.90;;;;;;1884954;75;21088;-74
2021/10/26 00:56:59;;;;;;;8.60;5.67;;;6.60;99.90;;;;;;1865196;75;21203;-74
2021/10/26 00:59:25;;;;;;;10.00;5.45;;;6.70;99.90;;;;;;1881677;75;21173;-74
2021/10/26 01:01:52;;;;;;;8.73;4.85;;;6.80;99.90;;;;;;1883017;75;21095;-73
2021/10/26 01:04:18;;;;;;;9.03;5.85;;;6.80;99.90;;;;;;1876238;74;21092;-73
2021/10/26 01:06:44;;;;;;;8.00;5.87;;;6.70;99.90;;;;;;1872989;74;21498;-72
2021/10/26 01:09:10;;;;;;;12.47;5.83;;;6.70;99.90;;;;;;1885692;75;21141;-73
2021/10/26 01:11:36;;;;;;;9.43;5.05;;;6.70;99.90;;;;;;1874155;76;21256;-74
2021/10/26 01:14:02;;;;;;;11.38;6.03;;;6.80;99.90;;;;;;1872776;74;21071;-73
2021/10/26 01:16:29;;;;;;;8.18;5.62;;;6.90;99.90;;;;;;1854233;76;21084;-74
2021/10/26 01:18:56;;;;;;;9.38;5.22;;;6.90;99.90;;;;;;1860136;76;21535;-73
2021/10/26 01:21:22;;;;;;;14.30;6.30;;;6.90;99.90;;;;;;1874379;75;21092;-73
2021/10/26 01:23:48;;;;;;;8.25;5.35;;;6.90;99.90;;;;;;1871149;75;21053;-73
2021/10/26 01:26:14;;;;;;;10.93;6.40;;;6.90;99.90;;;;;;1883796;75;21198;-72
2021/10/26 01:28:40;;;;;;;9.48;5.58;;;6.80;99.90;;;;;;1875811;76;21143;-73
2021/10/26 01:31:06;;;;;;;12.85;6.33;;;6.80;99.90;;;;;;1858933;76;21088;-73
2021/10/26 01:33:32;;;;;;;14.80;6.10;;;6.90;99.90;;;;;;1858275;76;21154;-73
2021/10/26 01:35:58;;;;;;;10.55;6.15;;;7.10;99.90;;;;;;1859008;76;21222;-72
2021/10/26 01:38:25;;;;;;;10.43;6.20;;;7.00;99.90;;;;;;1855185;76;21056;-74
2021/10/26 01:40:51;;;;;;;7.78;5.70;;;7.20;99.90;;;;;;1867220;74;21096;-74
2021/10/26 01:43:17;;;;;;;12.23;5.60;;;7.30;99.90;;;;;;1872121;75;21079;-73
2021/10/26 01:45:43;;;;;;;7.08;5.80;;;7.20;99.90;;;;;;1859559;76;21085;-74
2021/10/26 01:48:09;;;;;;;10.08;6.22;;;7.00;99.90;;;;;;1858920;75;21445;-74
2021/10/26 01:50:35;;;;;;;12.98;5.97;;;6.90;99.90;;;;;;1866943;75;21100;-73
2021/10/26 01:53:01;;;;;;;8.93;6.20;;;6.90;99.90;;;;;;1878640;76;21160;-74
2021/10/26 01:55:28;;;;;;;9.58;5.83;;;6.90;99.90;;;;;;1876000;75;21076;-74
2021/10/26 01:57:54;;;;;;;9.68;5.92;;;7.00;99.90;;;;;;1865616;75;21527;-74
2021/10/26 02:00:20;;;;;;;8.88;5.53;;;7.10;99.90;;;;;;1863555;75;21508;-75
2021/10/26 02:02:46;;;;;;;7.47;5.55;;;7.10;99.90;;;;;;1884638;74;21158;-75
2021/10/26 02:05:12;;;;;;;7.65;5.55;;;7.20;99.90;;;;;;1879254;76;21170;-74
2021/10/26 02:07:39;;;;;;;9.33;5.60;;;7.30;99.90;;;;;;1868138;75;21222;-75
2021/10/26 02:10:05;;;;;;;9.08;5.40;;;7.30;99.90;;;;;;1881775;75;21076;-75
2021/10/26 02:12:31;;;;;;;8.53;5.30;;;7.40;99.90;;;;;;1872259;74;21716;-75
2021/10/26 02:14:57;;;;;;;9.38;5.78;;;7.50;99.90;;;;;;1874140;75;21361;-73
2021/10/26 02:17:23;;;;;;;8.73;5.58;;;7.40;99.90;;;;;;1885398;74;21044;-75
2021/10/26 02:19:49;;;;;;;10.65;5.97;;;7.40;99.90;;;;;;1872944;74;21102;-75
2021/10/26 02:22:15;;;;;;;7.70;6.20;;;7.50;99.90;;;;;;1882300;75;21084;-75
2021/10/26 02:24:42;;;;;;;11.03;6.03;;;7.60;99.90;;;;;;1859491;76;21215;-75
2021/10/26 02:27:08;;;;;;;8.40;6.62;;;7.70;99.90;;;;;;1875970;76;21212;-74
2021/10/26 02:29:34;;;;;;;7.37;5.78;;;7.60;99.90;;;;;;1885103;75;21231;-74
2021/10/26 02:32:00;;;;;;;15.23;6.78;;;7.60;99.90;;;;;;1870347;75;21231;-74
2021/10/26 02:34:26;;;;;;;14.70;7.53;;;7.50;99.90;;;;;;1878730;75;21053;-74
2021/10/26 02:36:52;;;;;;;11.35;6.80;;;7.30;99.90;;;;;;1867737;75;21528;-74
2021/10/26 02:39:18;;;;;;;9.65;5.72;;;7.30;99.90;;;;;;1877305;74;21638;-75
2021/10/26 02:41:44;;;;;;;11.68;6.35;;;7.30;99.90;;;;;;1868011;75;21492;-74
2021/10/26 02:44:11;;;;;;;13.00;6.60;;;7.30;99.90;;;;;;1870213;76;21468;-74
2021/10/26 02:46:37;;;;;;;12.00;6.85;;;7.30;99.90;;;;;;1876886;75;21053;-74
2021/10/26 02:49:03;;;;;;;10.32;6.72;;;7.20;99.90;;;;;;1873654;75;21147;-74
2021/10/26 02:51:29;;;;;;;12.80;7.00;;;7.20;99.90;;;;;;1863633;76;21150;-74
2021/10/26 02:53:55;;;;;;;11.45;6.42;;;7.10;99.90;;;;;;1867149;76;21083;-73
2021/10/26 02:56:21;;;;;;;8.83;6.97;;;7.10;99.90;;;;;;1883645;75;21060;-74
2021/10/26 02:58:47;;;;;;;17.15;7.03;;;7.20;99.90;;;;;;1873459;74;21100;-74
2021/10/26 03:01:16;;;;;;;11.83;7.03;;;7.10;99.90;;;;;;1883629;75;21087;-74
2021/10/26 03:03:41;;;;;;;10.18;6.65;;;7.00;99.90;;;;;;1878173;75;21073;-75
2021/10/26 03:06:07;;;;;;;17.25;7.25;;;7.00;99.90;;;;;;1871643;74;21190;-74
2021/10/26 03:08:34;;;;;;;12.45;7.03;;;6.90;99.90;;;;;;1869084;74;21158;-74
2021/10/26 03:11:00;;;;;;;10.18;6.83;;;6.90;99.90;;;;;;1872650;75;21163;-75
2021/10/26 03:13:26;;;;;;;11.22;6.22;;;6.90;99.90;;;;;;1872128;75;21074;-74
2021/10/26 03:15:52;;;;;;;7.95;6.58;;;6.90;99.90;;;;;;1865954;75;21084;-74
2021/10/26 03:18:18;;;;;;;8.53;7.17;;;6.90;99.90;;;;;;1867328;75;21091;-75
2021/10/26 03:20:44;;;;;;;8.53;7.08;;;6.90;99.90;;;;;;1879935;75;21080;-75
2021/10/26 03:23:11;;;;;;;10.15;6.55;;;6.90;99.90;;;;;;1869286;75;21092;-75
2021/10/26 03:25:37;;;;;;;10.65;6.20;;;6.90;99.90;;;;;;1872134;76;21220;-76
2021/10/26 03:28:03;;;;;;;11.35;7.40;;;6.90;99.90;;;;;;1872507;76;21084;-75
2021/10/26 03:30:29;;;;;;;8.98;7.40;;;6.90;99.90;;;;;;1883696;75;21198;-76
2021/10/26 03:32:55;;;;;;;12.68;7.47;;;6.90;99.90;;;;;;1872958;75;21091;-76
2021/10/26 03:35:21;;;;;;;10.40;6.62;;;7.00;99.90;;;;;;1860927;74;21159;-76
2021/10/26 03:37:47;;;;;;;9.85;7.10;;;7.00;99.90;;;;;;1863575;75;21079;-75
2021/10/26 03:40:13;;;;;;;10.40;6.97;;;7.00;99.90;;;;;;1865171;76;21161;-75
2021/10/26 03:42:40;;;;;;;9.80;6.15;;;7.00;99.90;;;;;;1880661;75;21153;-75
2021/10/26 03:45:06;;;;;;;9.63;6.53;;;7.10;99.90;;;;;;1880380;75;21100;-75
2021/10/26 03:47:32;;;;;;;13.55;7.15;;;7.10;99.90;;;;;;1876024;75;21165;-75
2021/10/26 03:49:58;;;;;;;11.28;6.83;;;7.10;99.90;;;;;;1865602;75;21173;-74
2021/10/26 03:52:24;;;;;;;7.55;6.42;;;7.20;99.90;;;;;;1873196;76;21519;-75
2021/10/26 03:54:55;;;;;;;14.65;6.62;;;7.30;99.90;;;;;;1880636;75;21617;-74
2021/10/26 03:57:18;;;;;;;10.95;6.47;;;7.20;99.90;;;;;;1874800;76;21340;-74
2021/10/26 03:59:44;;;;;;;9.70;6.42;;;7.30;99.90;;;;;;1871745;74;21088;-72
2021/10/26 04:02:12;;;;;;;12.68;7.35;;;7.20;99.90;;;;;;1852732;75;21091;-74
2021/10/26 04:04:39;;;;;;;10.13;7.28;;;7.20;99.90;;;;;;1878562;74;21110;-73
2021/10/26 04:07:08;;;;;;;13.80;7.37;;;7.00;99.90;;;;;;1866382;75;21480;-73
2021/10/26 04:10:21;;;;;;;10.20;7.30;;;7.00;99.90;;;;;;1885008;75;21240;-72
2021/10/26 04:12:17;;;;;;;10.32;6.55;;;7.00;99.90;;;;;;1841482;76;21096;-73
2021/10/26 04:14:34;;;;;;;12.65;6.62;;;7.10;99.90;;;;;;1868505;75;21437;-73
2021/10/26 04:17:01;;;;;;;11.15;7.15;;;7.10;99.90;;;;;;1865713;75;21541;-73
2021/10/26 04:19:27;;;;;;;9.58;6.70;;;7.10;99.90;;;;;;1866285;75;21072;-73
2021/10/26 04:21:53;;;;;;;14.30;7.50;;;7.20;99.90;;;;;;1866231;76;21089;-73
2021/10/26 04:24:19;;;;;;;10.43;7.40;;;7.20;99.90;;;;;;1876415;75;21142;-72
2021/10/26 04:26:45;;;;;;;14.98;7.47;;;7.10;99.90;;;;;;1883057;76;21161;-74
2021/10/26 04:29:11;;;;;;;14.18;8.08;;;7.20;99.90;;;;;;1884801;75;21078;-73
2021/10/26 04:31:38;;;;;;;14.53;7.58;;;7.00;99.90;;;;;;1858683;75;21097;-74
2021/10/26 04:34:04;;;;;;;12.28;7.85;;;7.00;99.90;;;;;;1856142;76;21071;-75
2021/10/26 04:36:30;;;;;;;9.60;7.00;;;7.10;99.90;;;;;;1873601;75;21104;-75
2021/10/26 04:38:56;;;;;;;14.60;7.30;;;7.10;99.90;;;;;;1872127;75;21207;-74
2021/10/26 04:41:22;;;;;;;9.20;6.97;;;7.20;99.90;;;;;;1868403;74;21144;-73
2021/10/26 04:43:49;;;;;;;10.15;7.05;;;7.10;99.90;;;;;;1879373;75;21162;-74
2021/10/26 04:46:15;;;;;;;9.00;6.53;;;7.20;99.90;;;;;;1868674;75;21088;-75
2021/10/26 04:48:41;;;;;;;13.22;7.50;;;7.30;99.90;;;;;;1855170;76;21093;-75
2021/10/26 04:51:08;;;;;;;12.95;7.83;;;7.30;99.90;;;;;;1881461;74;21474;-76
2021/10/26 04:53:34;;;;;;;11.18;7.10;;;7.40;99.90;;;;;;1873262;74;21465;-76
2021/10/26 04:56:00;;;;;;;8.93;7.28;;;7.40;99.90;;;;;;1866202;76;21496;-75
2021/10/26 04:58:26;;;;;;;10.25;7.22;;;7.40;99.90;;;;;;1865027;75;21146;-74
2021/10/26 05:00:52;;;;;;;12.90;6.92;;;7.50;99.90;;;;;;1869197;74;21088;-76
2021/10/26 05:03:18;;;;;;;14.10;8.33;;;7.50;99.90;;;;;;1876052;74;21156;-75
2021/10/26 05:05:45;;;;;;;14.50;8.58;;;7.30;99.90;;;;;;1866344;74;21199;-77
2021/10/26 05:08:11;;;;;;;27.73;11.00;;;7.30;99.90;;;;;;1884213;74;21091;-76
2021/10/26 05:10:37;;;;;;;12.13;8.08;;;7.30;99.90;;;;;;1873557;74;21075;-76
2021/10/26 05:13:03;;;;;;;26.57;10.40;;;7.50;99.90;;;;;;1869668;74;21089;-76
2021/10/26 05:15:30;;;;;;;22.35;9.75;;;7.50;99.90;;;;;;1875929;75;21153;-76
2021/10/26 05:17:57;;;;;;;21.20;10.50;;;7.50;99.90;;;;;;1873793;75;21099;-76
2021/10/26 05:20:25;;;;;;;21.27;9.60;;;7.60;99.90;;;;;;1879807;75;21091;-75
2021/10/26 05:22:52;;;;;;;15.60;9.50;;;7.60;99.90;;;;;;1856953;76;21490;-75
2021/10/26 05:25:18;;;;;;;26.02;9.48;;;7.70;99.90;;;;;;1877639;74;21072;-74
2021/10/26 05:27:44;;;;;;;17.05;9.25;;;7.70;99.90;;;;;;1859951;75;21080;-75
2021/10/26 05:30:10;;;;;;;15.85;9.13;;;7.60;99.90;;;;;;1870435;74;21087;-73
2021/10/26 05:32:37;;;;;;;13.93;9.15;;;7.60;99.90;;;;;;1879867;74;21153;-75
2021/10/26 05:35:03;;;;;;;15.75;9.13;;;7.60;99.90;;;;;;1872580;74;21086;-76
2021/10/26 05:37:29;;;;;;;15.10;9.23;;;7.60;99.90;;;;;;1878979;74;21155;-75
2021/10/26 05:39:57;;;;;;;12.33;8.03;;;7.60;99.90;;;;;;1873797;75;21477;-75
2021/10/26 05:42:23;;;;;;;10.98;7.85;;;7.60;99.90;;;;;;1871880;76;21089;-75
2021/10/26 05:44:50;;;;;;;12.88;8.08;;;7.60;99.90;;;;;;1876467;75;21158;-75
2021/10/26 05:47:16;;;;;;;11.38;8.48;;;7.50;99.90;;;;;;1864055;75;21179;-76
2021/10/26 05:49:42;;;;;;;11.88;8.78;;;7.50;99.90;;;;;;1858322;76;21163;-74
2021/10/26 05:52:09;;;;;;;13.30;8.70;;;7.50;99.90;;;;;;1869874;76;21188;-77
2021/10/26 05:54:35;;;;;;;14.03;9.05;;;7.40;99.90;;;;;;1868306;75;21143;-76
2021/10/26 05:57:01;;;;;;;18.90;8.43;;;7.30;99.90;;;;;;1863919;75;21180;-76
2021/10/26 05:59:30;;;;;;;11.93;7.97;;;7.40;99.90;;;;;;1873640;75;21091;-76
2021/10/26 06:01:56;;;;;;;15.98;8.00;;;7.40;99.90;;;;;;1860533;76;21719;-77
2021/10/26 06:04:24;;;;;;;9.75;7.75;;;7.40;99.90;;;;;;1874929;74;21496;-76
2021/10/26 06:06:50;;;;;;;10.80;7.50;;;7.40;99.90;;;;;;1870235;75;21095;-75
2021/10/26 06:09:17;;;;;;;13.30;7.90;;;7.50;99.90;;;;;;1884488;75;21195;-76
2021/10/26 06:11:47;;;;;;;11.40;8.55;;;7.50;99.90;;;;;;1871737;74;21146;-74
2021/10/26 06:14:11;;;;;;;13.48;8.23;;;7.40;99.90;;;;;;1880888;75;21080;-76
2021/10/26 06:16:39;;;;;;;13.65;9.25;;;7.50;99.90;;;;;;1864153;75;21151;-76
2021/10/26 06:19:05;;;;;;;21.52;9.13;;;7.50;99.90;;;;;;1865225;76;21554;-76
2021/10/26 06:21:32;;;;;;;13.60;8.80;;;7.50;99.90;;;;;;1864250;76;21561;-76
2021/10/26 06:23:58;;;;;;;14.35;8.75;;;7.60;99.90;;;;;;1882185;75;21087;-75
2021/10/26 06:26:25;;;;;;;17.30;8.63;;;7.60;99.90;;;;;;1867462;75;21060;-75
2021/10/26 06:28:51;;;;;;;14.93;8.90;;;7.70;99.90;;;;;;1864431;75;21081;-75
2021/10/26 06:31:17;;;;;;;19.07;9.50;;;7.60;99.90;;;;;;1868774;75;21094;-76
2021/10/26 06:33:43;;;;;;;17.90;8.80;;;7.70;99.90;;;;;;1869692;76;21083;-76
2021/10/26 06:36:09;;;;;;;16.52;9.30;;;7.70;99.90;;;;;;1871367;74;21060;-76
2021/10/26 06:38:35;;;;;;;13.80;8.35;;;7.80;99.90;;;;;;1851944;76;21076;-75
2021/10/26 06:41:02;;;;;;;20.92;8.75;;;7.80;99.90;;;;;;1886185;75;21086;-78
2021/10/26 06:43:28;;;;;;;19.77;9.85;;;7.80;99.90;;;;;;1878803;75;21083;-77
2021/10/26 06:45:54;;;;;;;17.35;11.15;;;7.70;99.90;;;;;;1885577;75;21084;-79
2021/10/26 06:48:22;;;;;;;15.68;8.88;;;7.70;99.90;;;;;;1873898;75;21060;-79
2021/10/26 06:50:48;;;;;;;19.15;8.83;;;7.80;99.90;;;;;;1888130;76;21161;-80
2021/10/26 06:53:15;;;;;;;19.55;10.08;;;7.90;99.90;;;;;;1876269;76;21091;-79
2021/10/26 06:55:43;;;;;;;11.28;8.90;;;7.80;99.90;;;;;;1885085;74;21205;-80
2021/10/26 06:58:09;;;;;;;12.58;8.55;;;8.00;99.90;;;;;;1854667;76;21097;-79
2021/10/26 07:00:35;;;;;;;17.45;8.70;;;8.10;99.90;;;;;;1871264;75;21279;-79
2021/10/26 07:03:06;;;;;;;14.87;9.28;;;8.10;99.90;;;;;;1877756;75;21089;-79
2021/10/26 07:05:29;;;;;;;16.15;9.60;;;8.20;99.90;;;;;;1866021;76;21040;-79
2021/10/26 07:07:55;;;;;;;21.52;9.70;;;8.20;99.90;;;;;;1881851;76;21079;-80
2021/10/26 07:10:22;;;;;;;21.68;9.10;;;8.10;99.90;;;;;;1862124;76;21175;-80
2021/10/26 07:12:48;;;;;;;19.05;8.98;;;8.30;99.90;;;;;;1874908;74;21080;-79
2021/10/26 07:15:15;;;;;;;17.55;10.13;;;8.30;99.90;;;;;;1873220;74;21237;-79
2021/10/26 07:17:42;;;;;;;19.85;10.03;;;8.20;99.90;;;;;;1880897;75;21489;-78
2021/10/26 07:20:08;;;;;;;16.85;9.78;;;8.10;99.90;;;;;;1876176;75;21083;-80
2021/10/26 07:22:34;;;;;;;14.35;9.95;;;8.20;99.90;;;;;;1872053;74;21056;-77
2021/10/26 07:25:05;;;;;;;22.10;10.48;;;8.10;99.90;;;;;;1875675;74;21158;-78
2021/10/26 07:27:28;;;;;;;17.85;9.05;;;8.20;99.90;;;;;;1876267;75;21079;-77
2021/10/26 07:29:54;;;;;;;13.45;10.08;;;8.20;99.90;;;;;;1860037;75;21163;-78
2021/10/26 07:32:21;;;;;;;24.63;11.00;;;8.30;99.90;;;;;;1873684;74;21060;-77
2021/10/26 07:34:47;;;;;;;18.82;10.38;;;8.50;99.90;;;;;;1880754;76;21087;-79
2021/10/26 07:37:14;;;;;;;17.35;10.15;;;8.50;99.90;;;;;;1887884;76;21079;-79
2021/10/26 07:39:51;;;;;;;17.12;10.08;;;8.60;99.90;;;;;;1870494;75;21095;-80
2021/10/26 07:42:17;;;;;;;18.42;10.13;;;8.60;99.90;;;;;;1870916;76;21570;-78
2021/10/26 07:44:44;;;;;;;20.17;10.20;;;8.80;99.90;;;;;;1882753;75;21095;-78
2021/10/26 07:47:10;;;;;;;18.45;10.98;;;8.80;99.90;;;;;;1868038;74;21065;-78
2021/10/26 07:49:36;;;;;;;18.23;9.85;;;8.80;99.90;;;;;;1886585;75;21087;-79
2021/10/26 07:52:02;;;;;;;19.37;10.10;;;8.90;99.90;;;;;;1865925;76;21177;-77
2021/10/26 07:54:28;;;;;;;17.17;9.33;;;9.00;99.90;;;;;;1877893;75;21092;-78
2021/10/26 07:56:54;;;;;;;16.65;9.78;;;9.10;99.90;;;;;;1880447;74;21166;-76
2021/10/26 07:59:21;;;;;;;20.90;10.10;;;9.00;99.90;;;;;;1877650;75;21501;-83
2021/10/26 08:01:47;;;;;;;18.12;9.95;;;9.20;99.90;;;;;;1862220;75;21093;-74
2021/10/26 08:04:13;;;;;;;17.00;9.30;;;9.20;99.90;;;;;;1882366;75;21158;-75
2021/10/26 08:06:39;;;;;;;16.35;10.13;;;9.20;99.90;;;;;;1879628;75;21096;-76
2021/10/26 08:09:06;;;;;;;20.52;9.78;;;9.40;99.90;;;;;;1863156;74;21107;-77
2021/10/26 08:11:34;;;;;;;18.62;9.65;;;9.70;99.90;;;;;;1882751;74;21166;-76
2021/10/26 08:14:00;;;;;;;23.52;8.85;;;10.00;99.90;;;;;;1874696;75;21121;-76
2021/10/26 08:16:26;;;;;;;14.93;7.85;;;10.10;99.90;;;;;;1880577;75;21596;-75
2021/10/26 08:18:52;;;;;;;13.22;7.92;;;10.40;99.90;;;;;;1874832;74;21515;-75
2021/10/26 08:21:18;;;;;;;15.72;8.43;;;10.50;99.90;;;;;;1871542;74;21613;-75
2021/10/26 08:23:45;;;;;;;12.75;8.68;;;10.50;99.90;;;;;;1875217;74;21153;-75
2021/10/26 08:26:15;;;;;;;12.28;7.83;;;10.50;99.90;;;;;;1873552;75;21092;-75
2021/10/26 08:28:39;;;;;;;17.00;7.45;;;10.50;99.90;;;;;;1862308;75;21183;-75
2021/10/26 08:31:17;;;;;;;10.50;7.42;;;10.70;99.90;;;;;;1871497;75;21089;-76
2021/10/26 08:36:01;;;;;;;10.08;7.33;;;10.90;99.90;;;;;;1870187;75;21123;-76
2021/10/26 08:38:27;;;;;;;13.25;7.55;;;11.30;99.90;;;;;;1883937;75;21086;-75
2021/10/26 08:40:53;;;;;;;11.28;7.65;;;11.20;99.90;;;;;;1871170;75;21168;-75
2021/10/26 08:43:19;;;;;;;13.13;7.60;;;10.90;99.90;;;;;;1861265;75;21054;-74
2021/10/26 08:45:48;;;;;;;13.28;7.45;;;11.10;99.90;;;;;;1871642;75;21092;-75
2021/10/26 08:48:14;;;;;;;11.90;7.95;;;11.00;99.90;;;;;;1880894;74;21555;-75
2021/10/26 08:50:40;;;;;;;12.28;7.75;;;11.20;99.90;;;;;;1876313;76;21165;-75
2021/10/26 08:53:06;;;;;;;16.62;7.65;;;11.60;99.90;;;;;;1885121;74;21187;-75
2021/10/26 08:55:36;;;;;;;9.78;6.60;;;11.90;99.90;;;;;;1876450;75;21476;-76
2021/10/26 08:58:02;;;;;;;13.08;7.75;;;12.30;99.90;;;;;;1874308;75;21209;-77
2021/10/26 09:00:29;;;;;;;11.95;7.40;;;12.10;99.90;;;;;;1862497;75;21103;-76
2021/10/26 09:02:55;;;;;;;13.88;7.00;;;12.50;99.90;;;;;;1876266;75;21097;-76
2021/10/26 09:05:21;;;;;;;9.48;7.05;;;12.30;99.90;;;;;;1870877;75;21080;-75
2021/10/26 09:07:48;;;;;;;10.63;7.20;;;12.60;99.90;;;;;;1855345;75;21150;-80
2021/10/26 09:10:14;;;;;;;8.68;6.45;;;13.00;99.90;;;;;;1866928;75;21181;-78
2021/10/26 09:17:52;;;;;;;10.30;6.90;;;14.50;99.90;;;;;;1868313;75;21068;-77
2021/10/26 09:20:21;;;;;;;11.70;6.65;;;14.20;99.90;;;;;;1877045;75;21158;-78
2021/10/26 09:22:47;;;;;;;11.55;6.08;;;14.00;99.90;;;;;;1874921;74;21114;-77
2021/10/26 09:25:14;;;;;;;23.67;7.70;;;13.50;99.90;;;;;;1871776;75;21097;-78
2021/10/26 09:27:40;;;;;;;10.88;6.87;;;13.70;99.90;;;;;;1866363;75;21076;-77
2021/10/26 09:30:06;;;;;;;10.38;7.15;;;13.60;99.90;;;;;;1876406;75;21083;-77
2021/10/26 09:32:33;;;;;;;7.25;6.53;;;13.70;99.90;;;;;;1867594;75;21077;-76
2021/10/26 09:34:59;;;;;;;9.75;6.92;;;13.60;99.90;;;;;;1849079;75;21215;-78
2021/10/26 09:37:25;;;;;;;10.58;7.30;;;13.40;99.90;;;;;;1879760;75;21153;-79
2021/10/26 09:39:52;;;;;;;15.88;6.78;;;13.50;99.90;;;;;;1873504;75;21119;-78
2021/10/26 09:42:18;;;;;;;13.38;6.65;;;14.40;99.90;;;;;;1877171;74;21084;-78
2021/10/26 09:44:44;;;;;;;11.78;6.85;;;14.90;99.90;;;;;;1877117;76;21231;-77
2021/10/26 09:47:11;;;;;;;10.98;6.85;;;15.30;99.90;;;;;;1877417;74;21472;-79
2021/10/26 09:49:37;;;;;;;11.18;6.87;;;15.80;99.90;;;;;;1858756;75;21171;-79
2021/10/26 09:52:03;;;;;;;11.57;6.72;;;16.20;99.90;;;;;;1872657;75;21066;-78
2021/10/26 09:54:29;;;;;;;9.30;5.20;;;16.40;99.90;;;;;;1875135;76;21275;-77
2021/10/26 09:56:55;;;;;;;8.63;5.45;;;16.80;99.90;;;;;;1857762;76;21146;-78
2021/10/26 09:59:22;;;;;;;12.40;6.03;;;16.70;99.90;;;;;;1872830;75;21476;-78
2021/10/26 10:01:48;;;;;;;10.70;6.15;;;16.90;99.90;;;;;;1869552;75;21440;-78
2021/10/26 10:04:14;;;;;;;14.87;5.67;;;16.50;99.90;;;;;;1856564;75;21085;-78
2021/10/26 10:06:40;;;;;;;7.80;5.35;;;16.40;99.90;;;;;;1865732;75;21280;-78
2021/10/26 10:09:06;;;;;;;12.75;5.70;;;16.70;99.90;;;;;;1873776;75;21088;-77
2021/10/26 10:11:33;;;;;;;11.78;5.03;;;16.60;99.90;;;;;;1876479;74;21053;-79
2021/10/26 10:13:59;;;;;;;8.08;5.42;;;16.50;99.90;;;;;;1866483;74;21061;-79
2021/10/26 10:16:25;;;;;;;8.65;5.97;;;16.60;99.90;;;;;;1866950;76;21488;-78
2021/10/26 10:18:52;;;;;;;10.38;4.65;;;16.30;99.90;;;;;;1881843;75;21487;-79
2021/10/26 10:21:18;;;;;;;8.88;4.92;;;16.40;99.90;;;;;;1856509;76;21187;-79
2021/10/26 10:23:44;;;;;;;12.23;5.08;;;16.80;99.90;;;;;;1869492;76;21199;-78
2021/10/26 10:26:10;;;;;;;7.58;4.90;;;17.00;99.90;;;;;;1873495;75;21500;-79
2021/10/26 10:28:39;;;;;;;5.78;4.42;;;16.90;99.90;;;;;;1872051;76;21489;-79
2021/10/26 10:31:04;;;;;;;12.18;4.87;;;16.40;99.90;;;;;;1872023;76;21124;-79
2021/10/26 10:33:31;;;;;;;8.20;4.12;;;16.30;99.90;;;;;;1860823;76;21093;-80
2021/10/26 10:36:00;;;;;;;8.13;4.25;;;17.30;99.90;;;;;;1879907;75;21088;-78
2021/10/26 10:38:26;;;;;;;6.72;4.30;;;18.30;99.90;;;;;;1882766;75;21112;-79
2021/10/26 10:40:53;;;;;;;9.05;4.58;;;17.60;99.90;;;;;;1863221;74;21159;-79
2021/10/26 10:43:20;;;;;;;5.35;3.92;;;17.10;99.90;;;;;;1881859;75;21531;-76
2021/10/26 10:45:47;;;;;;;11.60;4.67;;;16.70;99.90;;;;;;1879886;74;21205;-79
2021/10/26 10:48:13;;;;;;;7.87;4.58;;;16.70;99.90;;;;;;1878553;75;21068;-78
2021/10/26 10:50:39;;;;;;;7.25;4.37;;;16.60;99.90;;;;;;1871494;75;21214;-79
2021/10/26 10:53:06;;;;;;;7.55;3.45;;;16.70;99.90;;;;;;1858343;75;21177;-79
2021/10/26 10:55:32;;;;;;;7.40;4.60;;;16.70;99.90;;;;;;1874056;74;21083;-77
2021/10/26 10:57:58;;;;;;;6.92;4.40;;;16.30;99.90;;;;;;1867776;75;21053;-78
2021/10/26 11:00:25;;;;;;;8.10;4.80;;;16.80;99.90;;;;;;1875881;76;21083;-79
2021/10/26 11:02:51;;;;;;;5.35;4.33;;;17.60;99.90;;;;;;1877656;74;21653;-79
2021/10/26 11:05:17;;;;;;;7.30;4.72;;;18.10;99.90;;;;;;1867627;76;21225;-78
2021/10/26 11:07:44;;;;;;;7.92;4.83;;;17.70;99.90;;;;;;1860149;75;21080;-78
2021/10/26 11:10:12;;;;;;;9.18;4.47;;;17.50;99.90;;;;;;1870301;74;21143;-77
2021/10/26 11:12:38;;;;;;;7.08;4.20;;;17.40;99.90;;;;;;1877741;75;21448;-78
2021/10/26 11:15:04;;;;;;;6.33;4.47;;;16.70;99.90;;;;;;1880579;74;21083;-77
2021/10/26 11:17:30;;;;;;;9.23;4.05;;;16.60;99.90;;;;;;1877349;74;21092;-78
2021/10/26 11:19:57;;;;;;;8.55;4.35;;;16.60;99.90;;;;;;1862194;75;21228;-77
2021/10/26 11:22:23;;;;;;;6.37;4.10;;;16.50;99.90;;;;;;1864966;75;21083;-77
2021/10/26 11:24:50;;;;;;;5.53;4.03;;;16.40;99.90;;;;;;1858223;75;21194;-77
2021/10/26 11:27:16;;;;;;;20.35;4.58;;;16.40;99.90;;;;;;1886138;75;21160;-77
2021/10/26 11:29:42;;;;;;;6.92;4.03;;;16.80;99.90;;;;;;1868754;74;21140;-78
2021/10/26 11:32:08;;;;;;;5.33;3.92;;;16.60;99.90;;;;;;1876483;75;21105;-77
2021/10/26 11:34:34;;;;;;;9.03;3.60;;;16.50;99.90;;;;;;1864905;75;21093;-76
2021/10/26 11:37:02;;;;;;;9.93;3.92;;;16.70;99.90;;;;;;1863206;74;21564;-77
2021/10/26 11:39:28;;;;;;;5.80;3.52;;;16.70;99.90;;;;;;1868880;75;21092;-78
2021/10/26 11:41:57;;;;;;;7.83;3.92;;;17.00;99.90;;;;;;1885037;75;21235;-78
2021/10/26 11:44:22;;;;;;;5.22;3.67;;;17.10;99.90;;;;;;1871376;75;21108;-77
2021/10/26 11:46:48;;;;;;;14.63;3.40;;;17.10;99.90;;;;;;1866274;75;21182;-77
2021/10/26 11:49:24;;;;;;;5.28;3.50;;;17.10;99.90;;;;;;1865939;76;21073;-77
2021/10/26 11:51:50;;;;;;;3.45;1.90;;;17.20;99.90;;;;;;1858674;75;21061;-78
2021/10/26 11:54:18;;;;;;;6.78;2.80;;;17.20;99.90;;;;;;1856123;75;21087;-78
2021/10/26 11:56:44;;;;;;;6.50;2.35;;;17.10;99.90;;;;;;1871592;76;21158;-78
2021/10/26 11:59:11;;;;;;;4.22;2.60;;;17.00;99.90;;;;;;1888401;75;21099;-77
2021/10/26 12:01:37;;;;;;;4.37;2.55;;;16.80;99.90;;;;;;1873807;74;21100;-78
2021/10/26 12:04:04;;;;;;;9.33;2.37;;;16.80;99.90;;;;;;1867038;75;21159;-77
2021/10/26 12:06:31;;;;;;;5.22;2.80;;;16.90;99.90;;;;;;1873427;76;21499;-78
2021/10/26 12:08:57;;;;;;;5.37;2.58;;;16.90;99.90;;;;;;1879012;74;21153;-77
2021/10/26 12:11:23;;;;;;;6.97;2.92;;;16.60;99.90;;;;;;1877364;75;21083;-76
2021/10/26 12:13:49;;;;;;;4.17;2.35;;;16.40;99.90;;;;;;1870142;76;21165;-76
2021/10/26 12:16:15;;;;;;;5.10;2.80;;;16.10;99.90;;;;;;1866404;75;21081;-76
2021/10/26 12:18:41;;;;;;;5.65;3.33;;;15.90;99.90;;;;;;1873915;76;21175;-76
2021/10/26 12:21:08;;;;;;;5.70;2.75;;;15.70;99.90;;;;;;1867670;75;21150;-76
2021/10/26 12:23:35;;;;;;;5.78;2.70;;;15.80;99.90;;;;;;1869757;74;21487;-74
2021/10/26 12:26:01;;;;;;;5.75;3.08;;;15.60;99.90;;;;;;1866978;76;21154;-76
2021/10/26 12:28:27;;;;;;;3.35;2.60;;;15.70;99.90;;;;;;1869963;75;21151;-74
2021/10/26 12:30:53;;;;;;;5.65;2.80;;;15.80;99.90;;;;;;1870756;75;21202;-77
2021/10/26 12:33:19;;;;;;;4.83;2.67;;;15.70;99.90;;;;;;1875199;75;21092;-76
2021/10/26 12:35:47;;;;;;;5.08;2.77;;;15.60;99.90;;;;;;1884451;74;21073;-74
2021/10/26 12:38:13;;;;;;;5.22;2.37;;;15.70;99.90;;;;;;1866394;75;21495;-79
2021/10/26 12:40:40;;;;;;;5.83;2.67;;;15.60;99.90;;;;;;1871952;75;21084;-77
2021/10/26 12:43:06;;;;;;;4.87;2.67;;;15.60;99.90;;;;;;1868920;74;21131;-75
2021/10/26 12:45:32;;;;;;;6.12;2.85;;;15.40;99.90;;;;;;1887623;76;21049;-80
2021/10/26 12:47:59;;;;;;;11.93;3.50;;;15.50;99.90;;;;;;1874657;75;21224;-79